KBLI/BLI METAR and TAF weather

Enter ICAO airport designator
Station Type Date Time Source
KBLI METAR 2021/04/13 06:53 UTC NOAA

KBLI 130653Z AUTO 03007KT 10SM CLR 08/M05 A3034 RMK AO2 SLP283 T00781050 401611011


Station Type Date Time Source
KBLI Decoded METAR 2021/04/13 06:53 UTC NOAA

BELLINGHAM INTERNATIONAL AIRPORT, WA, United States (KBLI) 48-48N 122-32W 50M
Apr 13, 2021 - 02:53 AM EDT / 2021.04.13 0653 UTC
Wind: from the NNE (030 degrees) at 8 MPH (7 KT):0
Visibility: 10 mile(s):0
Sky conditions: clear
Temperature: 46.0 F (7.8 C)
Dew Point: 23.0 F (-5.0 C)
Relative Humidity: 39%
Pressure (altimeter): 30.34 in. Hg (1027 hPa)
ob: KBLI 130653Z AUTO 03007KT 10SM CLR 08/M05 A3034 RMK AO2 SLP283 T00781050 401611011
cycle: 7

Station Type Date Time Source
KBLI TAF 2021/04/13 06:24 UTC NOAA

TAF KBLI 130522Z 1306/1406 02005KT P6SM SKC
FM131600 02006KT P6SM SKC
FM131900 31012KT P6SM SKC
FM140400 VRB04KT P6SM SKC

Example: see airport list